Time,TemperatureF,DewpointF,PressureIn,WindDirection,WindDirectionDegrees,WindSpeedMPH,WindSpeedGustMPH,Humidity,HourlyPrecipIn,Conditions,Clouds,dailyrainin,SoftwareType,DateUTC
2013-02-21 00:10:00,26.9,16.0,29.93,SW,214,0.0,1.0,64,0.00,,,0.00,weatherlink.com 1.10,2013-02-21 05:10:00,
2013-02-21 00:25:00,26.7,16.0,29.92,SW,214,0.0,0.0,64,0.00,,,0.00,weatherlink.com 1.10,2013-02-21 05:25:00,
2013-02-21 00:40:00,26.4,16.0,29.92,SW,214,0.0,0.0,65,0.00,,,0.00,weatherlink.com 1.10,2013-02-21 05:40:00,
2013-02-21 00:55:00,27.3,15.0,29.92,SW,214,0.0,3.0,59,0.00,,,0.00,weatherlink.com 1.10,2013-02-21 05:55:00,
2013-02-21 01:10:00,28.7,13.0,29.92,SW,214,0.0,1.0,51,0.00,,,0.00,weatherlink.com 1.10,2013-02-21 06:10:00,
2013-02-21 01:25:00,29.4,14.0,29.91,SW,214,0.0,1.0,53,0.00,,,0.00,weatherlink.com 1.10,2013-02-21 06:25:00,
2013-02-21 01:40:00,28.7,14.0,29.93,SW,214,0.0,1.0,54,0.00,,,0.00,weatherlink.com 1.10,2013-02-21 06:40:00,
2013-02-21 01:55:00,28.5,14.0,29.93,SW,214,0.0,1.0,54,0.00,,,0.00,weatherlink.com 1.10,2013-02-21 06:55:00,
2013-02-21 02:10:00,28.9,13.0,29.93,SW,214,0.0,0.0,52,0.00,,,0.00,weatherlink.com 1.10,2013-02-21 07:10:00,
2013-02-21 02:25:00,29.3,13.0,29.93,SW,214,0.0,0.0,50,0.00,,,0.00,weatherlink.com 1.10,2013-02-21 07:25:00,
2013-02-21 02:40:00,29.1,14.0,29.93,SW,214,0.0,0.0,53,0.00,,,0.00,weatherlink.com 1.10,2013-02-21 07:40:00,
2013-02-21 02:55:00,29.2,13.0,29.93,SW,214,0.0,0.0,51,0.00,,,0.00,weatherlink.com 1.10,2013-02-21 07:55:00,
2013-02-21 03:10:00,29.3,14.0,29.93,SW,214,0.0,0.0,52,0.00,,,0.00,weatherlink.com 1.10,2013-02-21 08:10:00,
2013-02-21 03:25:00,29.3,14.0,29.93,SW,214,0.0,0.0,54,0.00,,,0.00,weatherlink.com 1.10,2013-02-21 08:25:00,
2013-02-21 03:40:00,29.2,15.0,29.93,SW,214,0.0,0.0,56,0.00,,,0.00,weatherlink.com 1.10,2013-02-21 08:40:00,
2013-02-21 03:55:00,29.5,13.0,29.93,SW,214,0.0,2.0,50,0.00,,,0.00,weatherlink.com 1.10,2013-02-21 08:55:00,
2013-02-21 04:10:00,29.8,11.0,29.93,SW,214,0.0,0.0,46,0.00,,,0.00,weatherlink.com 1.10,2013-02-21 09:10:00,
2013-02-21 04:25:00,29.8,12.0,29.92,SW,214,0.0,0.0,47,0.00,,,0.00,weatherlink.com 1.10,2013-02-21 09:25:00,
2013-02-21 04:40:00,30.4,11.0,29.92,SW,214,0.0,1.0,45,0.00,,,0.00,weatherlink.com 1.10,2013-02-21 09:40:00,
2013-02-21 04:55:00,31.1,6.0,29.93,SW,214,0.0,2.0,34,0.00,,,0.00,weatherlink.com 1.10,2013-02-21 09:55:00,
2013-02-21 05:10:00,31.1,5.0,29.93,SW,214,0.0,2.0,33,0.00,,,0.00,weatherlink.com 1.10,2013-02-21 10:10:00,
2013-02-21 05:25:00,31.0,8.0,29.93,SW,214,0.0,0.0,38,0.00,,,0.00,weatherlink.com 1.10,2013-02-21 10:25:00,
2013-02-21 05:40:00,30.7,5.0,29.93,SW,214,0.0,0.0,33,0.00,,,0.00,weatherlink.com 1.10,2013-02-21 10:40:00,
2013-02-21 05:55:00,30.4,10.0,29.94,SW,214,0.0,0.0,42,0.00,,,0.00,weatherlink.com 1.10,2013-02-21 10:55:00,
2013-02-21 06:10:00,30.1,9.0,29.94,SW,214,0.0,0.0,41,0.00,,,0.00,weatherlink.com 1.10,2013-02-21 11:10:00,
2013-02-21 06:25:00,30.0,12.0,29.95,SW,214,1.0,2.0,47,0.00,,,0.00,weatherlink.com 1.10,2013-02-21 11:25:00,
2013-02-21 06:40:00,30.4,12.0,29.95,SW,214,0.0,1.0,46,0.00,,,0.00,weatherlink.com 1.10,2013-02-21 11:40:00,
2013-02-21 06:55:00,30.5,10.0,29.97,SW,214,0.0,1.0,43,0.00,,,0.00,weatherlink.com 1.10,2013-02-21 11:55:00,
2013-02-21 07:11:00,31.5,10.0,29.97,SW,214,0.0,3.0,40,0.00,,,0.00,weatherlink.com 1.10,2013-02-21 12:11:00,
2013-02-21 07:25:00,31.8,10.0,29.97,SW,214,0.0,1.0,40,0.00,,,0.00,weatherlink.com 1.10,2013-02-21 12:25:00,
2013-02-21 07:40:00,31.9,6.0,29.98,SW,214,0.0,0.0,33,0.00,,,0.00,weatherlink.com 1.10,2013-02-21 12:40:00,
2013-02-21 07:55:00,31.5,7.0,29.98,SW,214,0.0,1.0,36,0.00,,,0.00,weatherlink.com 1.10,2013-02-21 12:55:00,
2013-02-21 08:10:00,32.3,7.0,29.98,SW,214,1.0,2.0,34,0.00,,,0.00,weatherlink.com 1.10,2013-02-21 13:10:00,
2013-02-21 08:25:00,32.6,5.0,29.99,SW,214,0.0,0.0,31,0.00,,,0.00,weatherlink.com 1.10,2013-02-21 13:25:00,
2013-02-21 08:40:00,33.3,6.0,29.99,SW,214,0.0,2.0,32,0.00,,,0.00,weatherlink.com 1.10,2013-02-21 13:40:00,
2013-02-21 08:56:00,36.7,5.0,29.99,SW,214,0.0,2.0,26,0.00,,,0.00,weatherlink.com 1.10,2013-02-21 13:56:00,
2013-02-21 09:11:00,37.5,14.0,29.99,South,191,0.0,4.0,38,0.00,,,0.00,weatherlink.com 1.10,2013-02-21 14:11:00,
2013-02-21 09:26:00,38.2,17.0,29.99,South,191,1.0,1.0,43,0.00,,,0.00,weatherlink.com 1.10,2013-02-21 14:26:00,
2013-02-21 09:41:00,38.2,15.0,30.00,South,191,0.0,2.0,39,0.00,,,0.00,weatherlink.com 1.10,2013-02-21 14:41:00,
2013-02-21 09:56:00,38.6,17.0,30.00,South,191,2.0,2.0,41,0.00,,,0.00,weatherlink.com 1.10,2013-02-21 14:56:00,
2013-02-21 10:11:00,39.1,18.0,30.00,South,191,2.0,3.0,43,0.00,,,0.00,weatherlink.com 1.10,2013-02-21 15:11:00,
2013-02-21 10:26:00,40.1,17.0,30.00,South,191,0.0,3.0,39,0.00,,,0.00,weatherlink.com 1.10,2013-02-21 15:26:00,
2013-02-21 10:41:00,42.4,17.0,30.00,SSW,193,2.0,4.0,36,0.00,,,0.00,weatherlink.com 1.10,2013-02-21 15:41:00,
2013-02-21 10:56:00,43.4,17.0,30.00,SSW,207,1.0,4.0,34,0.00,,,0.00,weatherlink.com 1.10,2013-02-21 15:56:00,
2013-02-21 11:11:00,44.9,13.0,29.99,SSW,200,1.0,4.0,27,0.00,,,0.00,weatherlink.com 1.10,2013-02-21 16:11:00,
2013-02-21 11:26:00,45.8,10.0,29.99,SSW,197,4.0,4.0,23,0.00,,,0.00,weatherlink.com 1.10,2013-02-21 16:26:00,
2013-02-21 11:42:00,46.3,6.0,29.99,SSW,211,3.0,6.0,19,0.00,,,0.00,weatherlink.com 1.10,2013-02-21 16:42:00,
2013-02-21 11:56:00,48.0,4.0,29.98,South,171,2.0,5.0,16,0.00,,,0.00,weatherlink.com 1.10,2013-02-21 16:56:00,
2013-02-21 12:11:00,47.9,-1.0,29.97,SSW,195,4.0,5.0,13,0.00,,,0.00,weatherlink.com 1.10,2013-02-21 17:11:00,
2013-02-21 12:27:00,49.5,-1.0,29.96,SSW,196,4.0,5.0,12,0.00,,,0.00,weatherlink.com 1.10,2013-02-21 17:27:00,
2013-02-21 12:41:00,50.6,1.0,29.95,SW,225,0.0,6.0,13,0.00,,,0.00,weatherlink.com 1.10,2013-02-21 17:41:00,
2013-02-21 12:57:00,51.4,0.0,29.94,SSW,207,3.0,11.0,12,0.00,,,0.00,weatherlink.com 1.10,2013-02-21 17:57:00,
2013-02-21 13:12:00,51.3,5.0,29.93,SW,222,4.0,8.0,15,0.00,,,0.00,weatherlink.com 1.10,2013-02-21 18:12:00,
2013-02-21 13:27:00,52.9,10.0,29.93,SW,234,4.0,6.0,18,0.00,,,0.00,weatherlink.com 1.10,2013-02-21 18:27:00,
2013-02-21 13:42:00,52.9,11.0,29.92,SW,218,5.0,7.0,19,0.00,,,0.00,weatherlink.com 1.10,2013-02-21 18:42:00,
2013-02-21 13:57:00,54.3,10.0,29.91,SSW,203,0.0,6.0,17,0.00,,,0.00,weatherlink.com 1.10,2013-02-21 18:57:00,
2013-02-21 14:12:00,54.9,13.0,29.91,SW,214,5.0,5.0,19,0.00,,,0.00,weatherlink.com 1.10,2013-02-21 19:12:00,
2013-02-21 14:27:00,55.6,14.0,29.91,SW,214,3.0,6.0,19,0.00,,,0.00,weatherlink.com 1.10,2013-02-21 19:27:00,
2013-02-21 14:42:00,55.1,16.0,29.92,South,170,1.0,6.0,21,0.00,,,0.00,weatherlink.com 1.10,2013-02-21 19:42:00,
2013-02-21 14:57:00,55.7,19.0,29.92,SW,233,3.0,5.0,24,0.00,,,0.00,weatherlink.com 1.10,2013-02-21 19:57:00,
2013-02-21 15:12:00,56.3,22.0,29.93,WSW,245,3.0,7.0,26,0.00,,,0.00,weatherlink.com 1.10,2013-02-21 20:12:00,
2013-02-21 15:27:00,55.2,19.0,29.92,SSW,209,1.0,6.0,24,0.00,,,0.00,weatherlink.com 1.10,2013-02-21 20:27:00,
2013-02-21 15:42:00,55.3,21.0,29.92,South,175,3.0,5.0,26,0.00,,,0.00,weatherlink.com 1.10,2013-02-21 20:42:00,
2013-02-21 15:57:00,55.0,21.0,29.91,SSW,192,2.0,6.0,27,0.00,,,0.00,weatherlink.com 1.10,2013-02-21 20:57:00,
2013-02-21 16:13:00,54.8,20.0,29.91,WSW,257,1.0,3.0,26,0.00,,,0.00,weatherlink.com 1.10,2013-02-21 21:13:00,
2013-02-21 16:28:00,54.6,20.0,29.91,SSW,207,0.0,4.0,26,0.00,,,0.00,weatherlink.com 1.10,2013-02-21 21:28:00,
2013-02-21 16:43:00,54.4,20.0,29.91,SSW,205,1.0,3.0,26,0.00,,,0.00,weatherlink.com 1.10,2013-02-21 21:43:00,
2013-02-21 16:58:00,54.3,21.0,29.90,SSW,205,0.0,2.0,27,0.00,,,0.00,weatherlink.com 1.10,2013-02-21 21:58:00,
2013-02-21 17:13:00,54.2,22.0,29.90,SSW,205,0.0,1.0,28,0.00,,,0.00,weatherlink.com 1.10,2013-02-21 22:13:00,
2013-02-21 17:28:00,53.2,18.0,29.91,NNE,13,1.0,6.0,25,0.00,,,0.00,weatherlink.com 1.10,2013-02-21 22:28:00,
2013-02-21 17:43:00,52.5,16.0,29.92,NE,41,0.0,3.0,24,0.00,,,0.00,weatherlink.com 1.10,2013-02-21 22:43:00,
2013-02-21 17:58:00,51.8,14.0,29.91,NE,35,1.0,2.0,22,0.00,,,0.00,weatherlink.com 1.10,2013-02-21 22:58:00,
2013-02-21 18:13:00,51.0,15.0,29.91,NE,35,0.0,3.0,24,0.00,,,0.00,weatherlink.com 1.10,2013-02-21 23:13:00,
2013-02-21 18:28:00,50.1,18.0,29.90,NE,35,1.0,3.0,28,0.00,,,0.00,weatherlink.com 1.10,2013-02-21 23:28:00,
2013-02-21 18:43:00,49.5,18.0,29.90,NE,35,1.0,3.0,29,0.00,,,0.00,weatherlink.com 1.10,2013-02-21 23:43:00,
2013-02-21 18:58:00,49.1,17.0,29.91,NE,35,0.0,2.0,28,0.00,,,0.00,weatherlink.com 1.10,2013-02-21 23:58:00,
2013-02-21 19:13:00,48.7,19.0,29.91,NE,35,0.0,1.0,31,0.00,,,0.00,weatherlink.com 1.10,2013-02-22 00:13:00,
2013-02-21 19:28:00,48.5,20.0,29.92,NE,35,0.0,2.0,32,0.00,,,0.00,weatherlink.com 1.10,2013-02-22 00:28:00,
2013-02-21 19:44:00,48.5,20.0,29.92,NE,35,0.0,3.0,33,0.00,,,0.00,weatherlink.com 1.10,2013-02-22 00:44:00,
2013-02-21 19:59:00,47.8,24.0,29.93,North,5,1.0,3.0,39,0.00,,,0.00,weatherlink.com 1.10,2013-02-22 00:59:00,
2013-02-21 20:14:00,45.5,32.0,29.95,North,11,3.0,4.0,59,0.01,,,0.01,weatherlink.com 1.10,2013-02-22 01:14:00,
2013-02-21 20:29:00,42.7,32.0,29.97,NNE,33,3.0,5.0,67,0.03,,,0.03,weatherlink.com 1.10,2013-02-22 01:29:00,
2013-02-21 20:44:00,42.9,32.0,29.98,NNW,328,0.0,4.0,66,0.05,,,0.05,weatherlink.com 1.10,2013-02-22 01:44:00,
2013-02-21 20:59:00,42.7,31.0,29.98,SE,128,5.0,7.0,64,0.07,,,0.07,weatherlink.com 1.10,2013-02-22 01:59:00,
2013-02-21 21:14:00,42.2,32.0,29.97,ENE,65,6.0,6.0,67,0.07,,,0.08,weatherlink.com 1.10,2013-02-22 02:14:00,
2013-02-21 21:29:00,41.7,33.0,29.95,East,86,0.0,4.0,70,0.05,,,0.08,weatherlink.com 1.10,2013-02-22 02:29:00,
2013-02-21 21:44:00,41.0,36.0,29.96,NE,37,2.0,3.0,82,0.03,,,0.08,weatherlink.com 1.10,2013-02-22 02:44:00,
2013-02-21 21:59:00,40.3,33.0,29.96,NE,34,0.0,4.0,76,0.01,,,0.08,weatherlink.com 1.10,2013-02-22 02:59:00,
2013-02-21 22:14:00,40.0,36.0,29.97,NE,34,0.0,1.0,84,0.01,,,0.09,weatherlink.com 1.10,2013-02-22 03:14:00,
2013-02-21 22:29:00,38.8,35.0,29.99,NE,34,0.0,3.0,85,0.07,,,0.15,weatherlink.com 1.10,2013-02-22 03:29:00,
2013-02-21 22:44:00,37.7,35.0,30.00,NE,34,1.0,2.0,90,0.12,,,0.20,weatherlink.com 1.10,2013-02-22 03:44:00,
2013-02-21 22:59:00,37.7,36.0,29.99,SW,229,1.0,4.0,92,0.18,,,0.26,weatherlink.com 1.10,2013-02-22 03:59:00,
2013-02-21 23:14:00,37.5,36.0,29.98,South,174,1.0,12.0,93,0.26,,,0.36,weatherlink.com 1.10,2013-02-22 04:14:00,
2013-02-21 23:30:00,37.3,36.0,29.99,NNW,339,0.0,3.0,94,0.26,,,0.41,weatherlink.com 1.10,2013-02-22 04:30:00,
2013-02-21 23:45:00,38.0,36.0,29.99,South,178,0.0,7.0,93,0.27,,,0.47,weatherlink.com 1.10,2013-02-22 04:45:00,